sensor_id;sensor_type;location;lat;lon;timestamp;temperature;humidity
7814;DHT22;3952;48.364;16.022;2023-12-04T00:00:31;-4.80;99.90
7814;DHT22;3952;48.364;16.022;2023-12-04T00:02:58;-4.90;99.90
7814;DHT22;3952;48.364;16.022;2023-12-04T00:05:26;-4.90;99.90
7814;DHT22;3952;48.364;16.022;2023-12-04T00:07:53;-5.00;99.90
7814;DHT22;3952;48.364;16.022;2023-12-04T00:10:20;-5.10;99.90
7814;DHT22;3952;48.364;16.022;2023-12-04T00:12:48;-5.30;99.90
7814;DHT22;3952;48.364;16.022;2023-12-04T00:15:18;-5.70;99.90
7814;DHT22;3952;48.364;16.022;2023-12-04T00:17:46;-5.70;99.90
7814;DHT22;3952;48.364;16.022;2023-12-04T00:20:13;-5.70;99.90
7814;DHT22;3952;48.364;16.022;2023-12-04T00:22:41;-5.70;99.90
7814;DHT22;3952;48.364;16.022;2023-12-04T00:25:08;-5.80;99.90
7814;DHT22;3952;48.364;16.022;2023-12-04T00:27:36;-5.90;99.90
7814;DHT22;3952;48.364;16.022;2023-12-04T00:30:04;-6.00;99.90
7814;DHT22;3952;48.364;16.022;2023-12-04T00:32:33;-6.10;99.90
7814;DHT22;3952;48.364;16.022;2023-12-04T00:35:00;-6.10;99.90
7814;DHT22;3952;48.364;16.022;2023-12-04T00:37:28;-6.10;99.90
7814;DHT22;3952;48.364;16.022;2023-12-04T00:39:55;-6.20;99.90
7814;DHT22;3952;48.364;16.022;2023-12-04T00:42:22;-6.20;99.90
7814;DHT22;3952;48.364;16.022;2023-12-04T00:44:50;-6.20;99.90
7814;DHT22;3952;48.364;16.022;2023-12-04T00:47:17;-6.30;99.90
7814;DHT22;3952;48.364;16.022;2023-12-04T00:49:46;-6.30;99.90
7814;DHT22;3952;48.364;16.022;2023-12-04T00:52:13;-6.50;99.90
7814;DHT22;3952;48.364;16.022;2023-12-04T00:54:40;-6.60;99.90
7814;DHT22;3952;48.364;16.022;2023-12-04T00:57:08;-6.70;99.90
7814;DHT22;3952;48.364;16.022;2023-12-04T00:59:35;-6.70;99.90
7814;DHT22;3952;48.364;16.022;2023-12-04T01:02:03;-7.50;99.90
7814;DHT22;3952;48.364;16.022;2023-12-04T01:04:31;-6.90;99.90
7814;DHT22;3952;48.364;16.022;2023-12-04T01:07:00;-7.00;99.90
7814;DHT22;3952;48.364;16.022;2023-12-04T01:09:28;-7.00;99.90
7814;DHT22;3952;48.364;16.022;2023-12-04T01:11:55;-9.10;99.90
7814;DHT22;3952;48.364;16.022;2023-12-04T01:14:22;-7.10;99.90
7814;DHT22;3952;48.364;16.022;2023-12-04T01:16:49;-7.30;99.90
7814;DHT22;3952;48.364;16.022;2023-12-04T01:19:17;-7.40;99.90
7814;DHT22;3952;48.364;16.022;2023-12-04T01:21:44;-7.50;99.90
7814;DHT22;3952;48.364;16.022;2023-12-04T01:24:14;-7.50;99.90
7814;DHT22;3952;48.364;16.022;2023-12-04T01:26:42;-7.60;99.90
7814;DHT22;3952;48.364;16.022;2023-12-04T01:29:09;-7.70;99.90
7814;DHT22;3952;48.364;16.022;2023-12-04T01:31:36;-7.70;99.90
7814;DHT22;3952;48.364;16.022;2023-12-04T01:34:04;-7.60;99.90
7814;DHT22;3952;48.364;16.022;2023-12-04T01:36:31;-7.70;99.90
7814;DHT22;3952;48.364;16.022;2023-12-04T01:38:58;-7.80;99.90
7814;DHT22;3952;48.364;16.022;2023-12-04T01:41:27;-7.80;99.90
7814;DHT22;3952;48.364;16.022;2023-12-04T01:43:54;-7.70;99.90
7814;DHT22;3952;48.364;16.022;2023-12-04T01:46:22;-7.80;99.90
7814;DHT22;3952;48.364;16.022;2023-12-04T01:48:50;-7.80;99.90
7814;DHT22;3952;48.364;16.022;2023-12-04T01:51:17;-7.80;99.90
7814;DHT22;3952;48.364;16.022;2023-12-04T01:53:46;-7.90;99.90
7814;DHT22;3952;48.364;16.022;2023-12-04T01:56:15;-8.00;99.90
7814;DHT22;3952;48.364;16.022;2023-12-04T01:58:44;-8.00;99.90
7814;DHT22;3952;48.364;16.022;2023-12-04T02:01:12;-8.10;99.90
7814;DHT22;3952;48.364;16.022;2023-12-04T02:03:40;-8.10;99.90
7814;DHT22;3952;48.364;16.022;2023-12-04T02:06:09;-8.10;99.90
7814;DHT22;3952;48.364;16.022;2023-12-04T02:08:40;-8.20;99.90
7814;DHT22;3952;48.364;16.022;2023-12-04T02:11:08;-8.20;99.90
7814;DHT22;3952;48.364;16.022;2023-12-04T02:13:35;-8.20;99.90
7814;DHT22;3952;48.364;16.022;2023-12-04T02:16:06;-8.30;99.90
7814;DHT22;3952;48.364;16.022;2023-12-04T02:18:34;-8.30;99.90
7814;DHT22;3952;48.364;16.022;2023-12-04T02:21:02;-8.30;99.90
7814;DHT22;3952;48.364;16.022;2023-12-04T02:23:29;-8.30;99.90
7814;DHT22;3952;48.364;16.022;2023-12-04T02:26:01;-8.40;99.90
7814;DHT22;3952;48.364;16.022;2023-12-04T02:28:33;-8.40;99.90
7814;DHT22;3952;48.364;16.022;2023-12-04T02:31:01;-8.40;99.90
7814;DHT22;3952;48.364;16.022;2023-12-04T02:33:31;-8.40;99.90
7814;DHT22;3952;48.364;16.022;2023-12-04T02:35:59;-8.40;99.90
7814;DHT22;3952;48.364;16.022;2023-12-04T02:38:28;-8.50;99.90
7814;DHT22;3952;48.364;16.022;2023-12-04T02:40:57;-8.50;99.90
7814;DHT22;3952;48.364;16.022;2023-12-04T02:43:24;-7.70;99.90
7814;DHT22;3952;48.364;16.022;2023-12-04T02:45:52;-8.40;99.90
7814;DHT22;3952;48.364;16.022;2023-12-04T02:48:19;-8.60;99.90
7814;DHT22;3952;48.364;16.022;2023-12-04T02:50:46;-8.70;99.90
7814;DHT22;3952;48.364;16.022;2023-12-04T02:53:14;-8.80;99.90
7814;DHT22;3952;48.364;16.022;2023-12-04T02:55:41;-8.80;99.90
7814;DHT22;3952;48.364;16.022;2023-12-04T02:58:09;-8.80;99.90
7814;DHT22;3952;48.364;16.022;2023-12-04T03:00:37;-8.80;99.90
7814;DHT22;3952;48.364;16.022;2023-12-04T03:03:04;-8.70;99.90
7814;DHT22;3952;48.364;16.022;2023-12-04T03:05:31;-8.70;99.90
7814;DHT22;3952;48.364;16.022;2023-12-04T03:07:59;-8.70;99.90
7814;DHT22;3952;48.364;16.022;2023-12-04T03:10:26;-8.70;99.90
7814;DHT22;3952;48.364;16.022;2023-12-04T03:12:53;-8.80;99.90
7814;DHT22;3952;48.364;16.022;2023-12-04T03:15:22;-8.90;99.90
7814;DHT22;3952;48.364;16.022;2023-12-04T03:17:50;-9.10;99.90
7814;DHT22;3952;48.364;16.022;2023-12-04T03:20:17;-9.30;99.90
7814;DHT22;3952;48.364;16.022;2023-12-04T03:22:44;-9.40;99.90
7814;DHT22;3952;48.364;16.022;2023-12-04T03:25:12;-9.60;99.90
7814;DHT22;3952;48.364;16.022;2023-12-04T03:27:39;-9.80;99.90
7814;DHT22;3952;48.364;16.022;2023-12-04T03:30:07;-9.90;99.90
7814;DHT22;3952;48.364;16.022;2023-12-04T03:32:36;-10.20;99.90
7814;DHT22;3952;48.364;16.022;2023-12-04T03:35:04;-10.30;99.90
7814;DHT22;3952;48.364;16.022;2023-12-04T03:37:31;-10.40;99.90
7814;DHT22;3952;48.364;16.022;2023-12-04T03:39:58;-10.40;99.90
7814;DHT22;3952;48.364;16.022;2023-12-04T03:42:26;-10.40;99.90
7814;DHT22;3952;48.364;16.022;2023-12-04T03:44:53;-10.40;99.90
7814;DHT22;3952;48.364;16.022;2023-12-04T03:47:20;-10.40;99.90
7814;DHT22;3952;48.364;16.022;2023-12-04T03:49:50;-10.30;99.90
7814;DHT22;3952;48.364;16.022;2023-12-04T03:52:18;-10.00;99.90
7814;DHT22;3952;48.364;16.022;2023-12-04T03:54:45;-10.20;99.90
7814;DHT22;3952;48.364;16.022;2023-12-04T03:57:12;-10.30;99.90
7814;DHT22;3952;48.364;16.022;2023-12-04T03:59:39;-10.30;99.90
7814;DHT22;3952;48.364;16.022;2023-12-04T04:02:07;-10.30;99.90
7814;DHT22;3952;48.364;16.022;2023-12-04T04:04:34;-10.30;99.90
7814;DHT22;3952;48.364;16.022;2023-12-04T04:07:03;-10.30;99.90
7814;DHT22;3952;48.364;16.022;2023-12-04T04:09:31;-10.30;99.90
7814;DHT22;3952;48.364;16.022;2023-12-04T04:11:58;-10.30;99.90
7814;DHT22;3952;48.364;16.022;2023-12-04T04:14:25;-10.30;99.90
7814;DHT22;3952;48.364;16.022;2023-12-04T04:16:53;-10.40;99.90
7814;DHT22;3952;48.364;16.022;2023-12-04T04:19:20;-10.50;99.90
7814;DHT22;3952;48.364;16.022;2023-12-04T04:21:47;-10.50;99.90
7814;DHT22;3952;48.364;16.022;2023-12-04T04:24:15;-10.60;99.90
7814;DHT22;3952;48.364;16.022;2023-12-04T04:26:42;-10.50;99.90
7814;DHT22;3952;48.364;16.022;2023-12-04T04:29:10;-10.40;99.90
7814;DHT22;3952;48.364;16.022;2023-12-04T04:31:37;-10.40;99.90
7814;DHT22;3952;48.364;16.022;2023-12-04T04:34:04;-10.50;99.90
7814;DHT22;3952;48.364;16.022;2023-12-04T04:36:31;-10.60;99.90
7814;DHT22;3952;48.364;16.022;2023-12-04T04:39:01;-10.70;99.90
7814;DHT22;3952;48.364;16.022;2023-12-04T04:41:30;-10.70;99.90
7814;DHT22;3952;48.364;16.022;2023-12-04T04:43:57;-10.60;99.90
7814;DHT22;3952;48.364;16.022;2023-12-04T04:46:24;-10.50;99.90
7814;DHT22;3952;48.364;16.022;2023-12-04T04:48:53;-10.50;99.90
7814;DHT22;3952;48.364;16.022;2023-12-04T04:51:21;-10.60;99.90
7814;DHT22;3952;48.364;16.022;2023-12-04T04:53:48;-10.60;99.90
7814;DHT22;3952;48.364;16.022;2023-12-04T04:56:17;-10.50;99.90
7814;DHT22;3952;48.364;16.022;2023-12-04T04:58:46;-10.50;99.90
7814;DHT22;3952;48.364;16.022;2023-12-04T05:01:15;-10.40;99.90
7814;DHT22;3952;48.364;16.022;2023-12-04T05:03:42;-10.50;99.90
7814;DHT22;3952;48.364;16.022;2023-12-04T05:06:09;-10.60;99.90
7814;DHT22;3952;48.364;16.022;2023-12-04T05:08:37;-10.70;99.90
7814;DHT22;3952;48.364;16.022;2023-12-04T05:11:05;-10.80;99.90
7814;DHT22;3952;48.364;16.022;2023-12-04T05:13:32;-10.80;99.90
7814;DHT22;3952;48.364;16.022;2023-12-04T05:16:01;-10.70;99.90
7814;DHT22;3952;48.364;16.022;2023-12-04T05:18:28;-10.60;99.90
7814;DHT22;3952;48.364;16.022;2023-12-04T05:20:55;-10.50;99.90
7814;DHT22;3952;48.364;16.022;2023-12-04T05:23:22;-10.00;99.90
7814;DHT22;3952;48.364;16.022;2023-12-04T05:25:50;-8.20;99.90
7814;DHT22;3952;48.364;16.022;2023-12-04T05:28:17;-10.30;99.90
7814;DHT22;3952;48.364;16.022;2023-12-04T05:30:44;-9.80;99.90
7814;DHT22;3952;48.364;16.022;2023-12-04T05:33:13;-10.30;99.90
7814;DHT22;3952;48.364;16.022;2023-12-04T05:35:41;-10.30;99.90
7814;DHT22;3952;48.364;16.022;2023-12-04T05:38:08;-10.40;99.90
7814;DHT22;3952;48.364;16.022;2023-12-04T05:40:35;-10.40;99.90
7814;DHT22;3952;48.364;16.022;2023-12-04T05:43:02;-10.30;99.90
7814;DHT22;3952;48.364;16.022;2023-12-04T05:45:30;-10.50;99.90
7814;DHT22;3952;48.364;16.022;2023-12-04T05:47:57;-10.50;99.90
7814;DHT22;3952;48.364;16.022;2023-12-04T05:50:26;-10.40;99.90
7814;DHT22;3952;48.364;16.022;2023-12-04T05:52:53;-10.60;99.90
7814;DHT22;3952;48.364;16.022;2023-12-04T05:55:20;-10.60;99.90
7814;DHT22;3952;48.364;16.022;2023-12-04T05:57:48;-10.60;99.90
7814;DHT22;3952;48.364;16.022;2023-12-04T06:00:15;-10.60;99.90
7814;DHT22;3952;48.364;16.022;2023-12-04T06:02:43;-10.70;99.90
7814;DHT22;3952;48.364;16.022;2023-12-04T06:05:11;-10.80;99.90
7814;DHT22;3952;48.364;16.022;2023-12-04T06:07:39;-10.90;99.90
7814;DHT22;3952;48.364;16.022;2023-12-04T06:10:08;-10.90;99.90
7814;DHT22;3952;48.364;16.022;2023-12-04T06:12:36;-11.00;99.90
7814;DHT22;3952;48.364;16.022;2023-12-04T06:15:04;-10.20;99.90
7814;DHT22;3952;48.364;16.022;2023-12-04T06:17:31;-11.10;99.90
7814;DHT22;3952;48.364;16.022;2023-12-04T06:19:58;-11.10;99.90
7814;DHT22;3952;48.364;16.022;2023-12-04T06:22:26;-11.20;99.90
7814;DHT22;3952;48.364;16.022;2023-12-04T06:24:56;-11.30;99.90
7814;DHT22;3952;48.364;16.022;2023-12-04T06:27:24;-11.20;99.90
7814;DHT22;3952;48.364;16.022;2023-12-04T06:29:51;-11.30;99.90
7814;DHT22;3952;48.364;16.022;2023-12-04T06:32:20;-11.20;99.90
7814;DHT22;3952;48.364;16.022;2023-12-04T06:34:47;-11.20;99.90
7814;DHT22;3952;48.364;16.022;2023-12-04T06:37:15;-11.20;99.90
7814;DHT22;3952;48.364;16.022;2023-12-04T06:39:45;-11.20;99.90
7814;DHT22;3952;48.364;16.022;2023-12-04T06:42:14;-11.10;99.90
7814;DHT22;3952;48.364;16.022;2023-12-04T06:44:42;-11.10;99.90
7814;DHT22;3952;48.364;16.022;2023-12-04T06:47:10;-11.10;99.90
7814;DHT22;3952;48.364;16.022;2023-12-04T06:49:39;-11.00;99.90
7814;DHT22;3952;48.364;16.022;2023-12-04T06:52:06;-11.00;99.90
7814;DHT22;3952;48.364;16.022;2023-12-04T06:54:34;-10.90;99.90
7814;DHT22;3952;48.364;16.022;2023-12-04T06:57:01;-10.70;99.90
7814;DHT22;3952;48.364;16.022;2023-12-04T06:59:31;-10.90;99.90
7814;DHT22;3952;48.364;16.022;2023-12-04T07:01:58;-11.00;99.90
7814;DHT22;3952;48.364;16.022;2023-12-04T07:04:26;-10.30;99.90
7814;DHT22;3952;48.364;16.022;2023-12-04T07:06:53;-11.00;99.90
7814;DHT22;3952;48.364;16.022;2023-12-04T07:09:20;-8.70;99.90
7814;DHT22;3952;48.364;16.022;2023-12-04T07:11:48;-11.00;99.90
7814;DHT22;3952;48.364;16.022;2023-12-04T07:14:15;-11.00;99.90
7814;DHT22;3952;48.364;16.022;2023-12-04T07:16:44;-10.90;99.90
7814;DHT22;3952;48.364;16.022;2023-12-04T07:19:11;-10.90;99.90
7814;DHT22;3952;48.364;16.022;2023-12-04T07:21:40;-10.90;99.90
7814;DHT22;3952;48.364;16.022;2023-12-04T07:24:08;-10.90;99.90
7814;DHT22;3952;48.364;16.022;2023-12-04T07:26:35;-10.80;99.90
7814;DHT22;3952;48.364;16.022;2023-12-04T07:29:04;-10.80;99.90
7814;DHT22;3952;48.364;16.022;2023-12-04T07:31:31;-10.90;99.90
7814;DHT22;3952;48.364;16.022;2023-12-04T07:34:00;-9.40;99.90
7814;DHT22;3952;48.364;16.022;2023-12-04T07:36:27;-10.50;99.90
7814;DHT22;3952;48.364;16.022;2023-12-04T07:38:55;-9.60;99.90
7814;DHT22;3952;48.364;16.022;2023-12-04T07:41:22;-8.70;99.90
7814;DHT22;3952;48.364;16.022;2023-12-04T07:43:50;-8.30;99.90
7814;DHT22;3952;48.364;16.022;2023-12-04T07:46:17;-8.00;99.90
7814;DHT22;3952;48.364;16.022;2023-12-04T07:48:44;-8.20;99.90
7814;DHT22;3952;48.364;16.022;2023-12-04T07:51:13;-8.40;99.90
7814;DHT22;3952;48.364;16.022;2023-12-04T07:53:40;-8.70;99.90
7814;DHT22;3952;48.364;16.022;2023-12-04T07:56:09;-9.00;99.90
7814;DHT22;3952;48.364;16.022;2023-12-04T07:58:36;-9.20;99.90
7814;DHT22;3952;48.364;16.022;2023-12-04T08:01:04;-9.20;99.90
7814;DHT22;3952;48.364;16.022;2023-12-04T08:03:32;-9.30;99.90
7814;DHT22;3952;48.364;16.022;2023-12-04T08:05:59;-9.20;99.90
7814;DHT22;3952;48.364;16.022;2023-12-04T08:08:28;-9.30;99.90
7814;DHT22;3952;48.364;16.022;2023-12-04T08:10:55;-9.30;99.90
7814;DHT22;3952;48.364;16.022;2023-12-04T08:13:22;-9.20;99.90
7814;DHT22;3952;48.364;16.022;2023-12-04T08:15:50;-9.10;99.90
7814;DHT22;3952;48.364;16.022;2023-12-04T08:18:17;-9.00;99.90
7814;DHT22;3952;48.364;16.022;2023-12-04T08:20:44;-8.60;99.90
7814;DHT22;3952;48.364;16.022;2023-12-04T08:23:12;-7.90;99.90
7814;DHT22;3952;48.364;16.022;2023-12-04T08:25:41;-6.60;99.90
7814;DHT22;3952;48.364;16.022;2023-12-04T08:28:08;-5.20;99.90
7814;DHT22;3952;48.364;16.022;2023-12-04T08:30:35;-3.90;99.90
7814;DHT22;3952;48.364;16.022;2023-12-04T08:33:03;-2.90;99.90
7814;DHT22;3952;48.364;16.022;2023-12-04T08:35:30;-1.90;99.90
7814;DHT22;3952;48.364;16.022;2023-12-04T08:37:57;-1.20;99.90
7814;DHT22;3952;48.364;16.022;2023-12-04T08:40:25;-0.80;99.90
7814;DHT22;3952;48.364;16.022;2023-12-04T08:42:53;-0.20;99.90
7814;DHT22;3952;48.364;16.022;2023-12-04T08:45:21;0.10;99.90
7814;DHT22;3952;48.364;16.022;2023-12-04T08:47:48;0.60;99.90
7814;DHT22;3952;48.364;16.022;2023-12-04T08:50:16;1.00;99.90
7814;DHT22;3952;48.364;16.022;2023-12-04T08:52:44;1.40;99.90
7814;DHT22;3952;48.364;16.022;2023-12-04T08:55:11;1.80;99.90
7814;DHT22;3952;48.364;16.022;2023-12-04T08:57:38;2.10;99.90
7814;DHT22;3952;48.364;16.022;2023-12-04T09:00:09;2.40;99.90
7814;DHT22;3952;48.364;16.022;2023-12-04T09:02:36;2.70;99.90
7814;DHT22;3952;48.364;16.022;2023-12-04T09:05:04;2.70;99.90
7814;DHT22;3952;48.364;16.022;2023-12-04T09:07:32;2.80;99.90
7814;DHT22;3952;48.364;16.022;2023-12-04T09:10:02;2.80;99.90
7814;DHT22;3952;48.364;16.022;2023-12-04T09:12:30;2.80;99.90
7814;DHT22;3952;48.364;16.022;2023-12-04T09:14:57;2.60;99.90
7814;DHT22;3952;48.364;16.022;2023-12-04T09:17:26;2.60;99.90
7814;DHT22;3952;48.364;16.022;2023-12-04T09:19:53;2.50;99.90
7814;DHT22;3952;48.364;16.022;2023-12-04T09:22:21;2.60;99.90
7814;DHT22;3952;48.364;16.022;2023-12-04T09:24:48;2.70;99.90
7814;DHT22;3952;48.364;16.022;2023-12-04T09:27:16;2.80;99.90
7814;DHT22;3952;48.364;16.022;2023-12-04T09:29:44;2.70;99.90
7814;DHT22;3952;48.364;16.022;2023-12-04T09:32:11;2.70;99.90
7814;DHT22;3952;48.364;16.022;2023-12-04T09:34:40;2.60;99.90
7814;DHT22;3952;48.364;16.022;2023-12-04T09:37:07;2.50;99.90
7814;DHT22;3952;48.364;16.022;2023-12-04T09:39:34;2.50;99.90
7814;DHT22;3952;48.364;16.022;2023-12-04T09:42:02;2.40;99.90
7814;DHT22;3952;48.364;16.022;2023-12-04T09:44:30;2.20;99.90
7814;DHT22;3952;48.364;16.022;2023-12-04T09:46:58;1.80;99.90
7814;DHT22;3952;48.364;16.022;2023-12-04T09:49:28;1.40;99.90
7814;DHT22;3952;48.364;16.022;2023-12-04T09:52:01;1.30;99.90
7814;DHT22;3952;48.364;16.022;2023-12-04T09:54:29;1.40;99.90
7814;DHT22;3952;48.364;16.022;2023-12-04T09:56:57;1.40;99.90
7814;DHT22;3952;48.364;16.022;2023-12-04T09:59:25;1.50;99.90
7814;DHT22;3952;48.364;16.022;2023-12-04T10:01:53;1.70;99.90
7814;DHT22;3952;48.364;16.022;2023-12-04T10:04:20;1.60;99.90
7814;DHT22;3952;48.364;16.022;2023-12-04T10:06:50;1.40;99.90
7814;DHT22;3952;48.364;16.022;2023-12-04T10:09:19;1.20;99.90
7814;DHT22;3952;48.364;16.022;2023-12-04T10:11:49;0.90;99.90
7814;DHT22;3952;48.364;16.022;2023-12-04T10:14:18;0.60;99.90
7814;DHT22;3952;48.364;16.022;2023-12-04T10:16:46;0.30;99.90
7814;DHT22;3952;48.364;16.022;2023-12-04T10:19:19;0.00;99.90
7814;DHT22;3952;48.364;16.022;2023-12-04T10:21:48;-0.30;99.90
7814;DHT22;3952;48.364;16.022;2023-12-04T10:24:31;-0.70;99.90
7814;DHT22;3952;48.364;16.022;2023-12-04T10:26:58;-1.10;99.90
7814;DHT22;3952;48.364;16.022;2023-12-04T10:29:28;-1.30;99.90
7814;DHT22;3952;48.364;16.022;2023-12-04T10:31:59;-1.60;99.90
7814;DHT22;3952;48.364;16.022;2023-12-04T10:34:26;-1.80;99.90
7814;DHT22;3952;48.364;16.022;2023-12-04T10:36:53;-1.90;99.90
7814;DHT22;3952;48.364;16.022;2023-12-04T10:39:24;-2.00;99.90
7814;DHT22;3952;48.364;16.022;2023-12-04T10:42:02;-2.10;99.90
7814;DHT22;3952;48.364;16.022;2023-12-04T10:44:30;-2.10;99.90
7814;DHT22;3952;48.364;16.022;2023-12-04T10:47:00;-0.70;99.90
7814;DHT22;3952;48.364;16.022;2023-12-04T10:49:28;-2.10;99.90
7814;DHT22;3952;48.364;16.022;2023-12-04T10:51:56;-2.10;99.90
7814;DHT22;3952;48.364;16.022;2023-12-04T10:54:25;-2.10;99.90
7814;DHT22;3952;48.364;16.022;2023-12-04T10:56:59;-2.20;99.90
7814;DHT22;3952;48.364;16.022;2023-12-04T10:59:35;-2.20;99.90
7814;DHT22;3952;48.364;16.022;2023-12-04T11:02:05;-2.20;99.90
7814;DHT22;3952;48.364;16.022;2023-12-04T11:04:36;-2.20;99.90
7814;DHT22;3952;48.364;16.022;2023-12-04T11:07:05;-2.20;99.90
7814;DHT22;3952;48.364;16.022;2023-12-04T11:09:35;-2.10;99.90
7814;DHT22;3952;48.364;16.022;2023-12-04T11:12:11;-2.10;99.90
7814;DHT22;3952;48.364;16.022;2023-12-04T11:14:44;-1.90;99.90
7814;DHT22;3952;48.364;16.022;2023-12-04T11:17:16;-1.90;99.90
7814;DHT22;3952;48.364;16.022;2023-12-04T11:19:52;-1.80;99.90
7814;DHT22;3952;48.364;16.022;2023-12-04T11:22:21;-1.70;99.90
7814;DHT22;3952;48.364;16.022;2023-12-04T11:24:49;-1.70;99.90
7814;DHT22;3952;48.364;16.022;2023-12-04T11:27:16;-1.70;99.90
7814;DHT22;3952;48.364;16.022;2023-12-04T11:29:47;-1.60;99.90
7814;DHT22;3952;48.364;16.022;2023-12-04T11:32:16;-1.60;99.90
7814;DHT22;3952;48.364;16.022;2023-12-04T11:34:50;-1.60;99.90
7814;DHT22;3952;48.364;16.022;2023-12-04T11:37:19;-1.60;99.90
7814;DHT22;3952;48.364;16.022;2023-12-04T11:39:46;-1.60;99.90
7814;DHT22;3952;48.364;16.022;2023-12-04T11:42:19;-1.60;99.90
7814;DHT22;3952;48.364;16.022;2023-12-04T11:44:49;0.10;99.90
7814;DHT22;3952;48.364;16.022;2023-12-04T11:47:22;-1.60;99.90
7814;DHT22;3952;48.364;16.022;2023-12-04T11:49:50;-1.70;99.90
7814;DHT22;3952;48.364;16.022;2023-12-04T11:52:32;-1.60;99.90
7814;DHT22;3952;48.364;16.022;2023-12-04T11:55:01;-1.60;99.90
7814;DHT22;3952;48.364;16.022;2023-12-04T11:57:33;-1.60;99.90
7814;DHT22;3952;48.364;16.022;2023-12-04T12:00:11;-1.60;99.90
7814;DHT22;3952;48.364;16.022;2023-12-04T12:02:41;-1.60;99.90
7814;DHT22;3952;48.364;16.022;2023-12-04T12:05:08;-1.50;99.90
7814;DHT22;3952;48.364;16.022;2023-12-04T12:07:35;-1.50;99.90
7814;DHT22;3952;48.364;16.022;2023-12-04T12:10:04;-1.40;99.90
7814;DHT22;3952;48.364;16.022;2023-12-04T12:12:31;-1.30;99.90
7814;DHT22;3952;48.364;16.022;2023-12-04T12:14:59;-1.30;99.90
7814;DHT22;3952;48.364;16.022;2023-12-04T12:17:28;-1.20;99.90
7814;DHT22;3952;48.364;16.022;2023-12-04T12:19:55;-1.20;99.90
7814;DHT22;3952;48.364;16.022;2023-12-04T12:22:23;-1.10;99.90
7814;DHT22;3952;48.364;16.022;2023-12-04T12:24:51;-1.10;99.90
7814;DHT22;3952;48.364;16.022;2023-12-04T12:27:19;-1.00;99.90
7814;DHT22;3952;48.364;16.022;2023-12-04T12:29:46;-0.90;99.90
7814;DHT22;3952;48.364;16.022;2023-12-04T12:32:14;-0.90;99.90
7814;DHT22;3952;48.364;16.022;2023-12-04T12:34:43;-0.80;99.90
7814;DHT22;3952;48.364;16.022;2023-12-04T12:37:10;-0.80;99.90
7814;DHT22;3952;48.364;16.022;2023-12-04T12:39:38;-0.70;99.90
7814;DHT22;3952;48.364;16.022;2023-12-04T12:42:06;-0.70;99.90
7814;DHT22;3952;48.364;16.022;2023-12-04T12:44:38;-0.60;99.90
7814;DHT22;3952;48.364;16.022;2023-12-04T12:47:06;-0.60;99.90
7814;DHT22;3952;48.364;16.022;2023-12-04T12:49:34;-0.60;99.90
7814;DHT22;3952;48.364;16.022;2023-12-04T12:52:05;-0.50;99.90
7814;DHT22;3952;48.364;16.022;2023-12-04T12:54:36;-0.40;99.90
7814;DHT22;3952;48.364;16.022;2023-12-04T12:57:04;-0.50;99.90
7814;DHT22;3952;48.364;16.022;2023-12-04T12:59:33;0.80;99.90
7814;DHT22;3952;48.364;16.022;2023-12-04T13:02:00;-0.60;99.90
7814;DHT22;3952;48.364;16.022;2023-12-04T13:04:34;-0.40;99.90
7814;DHT22;3952;48.364;16.022;2023-12-04T13:07:03;-0.40;99.90
7814;DHT22;3952;48.364;16.022;2023-12-04T13:09:32;-0.30;99.90
7814;DHT22;3952;48.364;16.022;2023-12-04T13:11:59;-0.20;99.90
7814;DHT22;3952;48.364;16.022;2023-12-04T13:14:26;-0.20;99.90
7814;DHT22;3952;48.364;16.022;2023-12-04T13:16:54;-0.10;99.90
7814;DHT22;3952;48.364;16.022;2023-12-04T13:19:22;0.00;99.90
7814;DHT22;3952;48.364;16.022;2023-12-04T13:21:49;0.00;99.90
7814;DHT22;3952;48.364;16.022;2023-12-04T13:24:18;0.10;99.90
7814;DHT22;3952;48.364;16.022;2023-12-04T13:26:46;0.10;99.90
7814;DHT22;3952;48.364;16.022;2023-12-04T13:29:13;0.10;99.90
7814;DHT22;3952;48.364;16.022;2023-12-04T13:31:41;0.20;99.90
7814;DHT22;3952;48.364;16.022;2023-12-04T13:34:09;0.30;99.90
7814;DHT22;3952;48.364;16.022;2023-12-04T13:36:37;0.30;99.90
7814;DHT22;3952;48.364;16.022;2023-12-04T13:39:04;0.40;99.90
7814;DHT22;3952;48.364;16.022;2023-12-04T13:41:44;0.50;99.90
7814;DHT22;3952;48.364;16.022;2023-12-04T13:44:29;0.60;99.90
7814;DHT22;3952;48.364;16.022;2023-12-04T13:46:57;-0.60;99.90
7814;DHT22;3952;48.364;16.022;2023-12-04T13:49:24;0.70;99.90
7814;DHT22;3952;48.364;16.022;2023-12-04T13:51:51;0.70;99.90
7814;DHT22;3952;48.364;16.022;2023-12-04T13:54:19;0.80;99.90
7814;DHT22;3952;48.364;16.022;2023-12-04T13:56:54;0.80;99.90
7814;DHT22;3952;48.364;16.022;2023-12-04T13:59:23;1.80;99.90
7814;DHT22;3952;48.364;16.022;2023-12-04T14:01:50;0.80;99.90
7814;DHT22;3952;48.364;16.022;2023-12-04T14:04:20;0.90;99.90
7814;DHT22;3952;48.364;16.022;2023-12-04T14:06:49;0.80;99.90
7814;DHT22;3952;48.364;16.022;2023-12-04T14:09:17;2.50;99.90
7814;DHT22;3952;48.364;16.022;2023-12-04T14:11:45;0.90;99.90
7814;DHT22;3952;48.364;16.022;2023-12-04T14:14:15;0.90;99.90
7814;DHT22;3952;48.364;16.022;2023-12-04T14:16:42;0.90;99.90
7814;DHT22;3952;48.364;16.022;2023-12-04T14:19:12;0.90;99.90
7814;DHT22;3952;48.364;16.022;2023-12-04T14:21:40;0.90;99.90
7814;DHT22;3952;48.364;16.022;2023-12-04T14:24:08;0.90;99.90
7814;DHT22;3952;48.364;16.022;2023-12-04T14:26:35;0.80;99.90
7814;DHT22;3952;48.364;16.022;2023-12-04T14:29:03;0.80;99.90
7814;DHT22;3952;48.364;16.022;2023-12-04T14:31:33;0.80;99.90
7814;DHT22;3952;48.364;16.022;2023-12-04T14:34:01;0.80;99.90
7814;DHT22;3952;48.364;16.022;2023-12-04T14:36:29;0.80;99.90
7814;DHT22;3952;48.364;16.022;2023-12-04T14:38:57;0.70;99.90
7814;DHT22;3952;48.364;16.022;2023-12-04T14:41:25;0.70;99.90
7814;DHT22;3952;48.364;16.022;2023-12-04T14:43:53;0.70;99.90
7814;DHT22;3952;48.364;16.022;2023-12-04T14:46:20;0.70;99.90
7814;DHT22;3952;48.364;16.022;2023-12-04T14:48:49;0.70;99.90
7814;DHT22;3952;48.364;16.022;2023-12-04T14:51:16;0.60;99.90
7814;DHT22;3952;48.364;16.022;2023-12-04T14:53:44;0.60;99.90
7814;DHT22;3952;48.364;16.022;2023-12-04T14:56:16;0.60;99.90
7814;DHT22;3952;48.364;16.022;2023-12-04T14:58:51;0.60;99.90
7814;DHT22;3952;48.364;16.022;2023-12-04T15:01:42;0.70;99.90
7814;DHT22;3952;48.364;16.022;2023-12-04T15:04:27;0.70;99.90
7814;DHT22;3952;48.364;16.022;2023-12-04T15:07:12;0.70;99.90
7814;DHT22;3952;48.364;16.022;2023-12-04T15:10:11;0.60;99.90
7814;DHT22;3952;48.364;16.022;2023-12-04T15:13:05;0.70;99.90
7814;DHT22;3952;48.364;16.022;2023-12-04T15:15:50;0.70;99.90
7814;DHT22;3952;48.364;16.022;2023-12-04T15:18:43;0.70;99.90
7814;DHT22;3952;48.364;16.022;2023-12-04T15:21:28;0.60;99.90
7814;DHT22;3952;48.364;16.022;2023-12-04T15:23:55;0.60;99.90
7814;DHT22;3952;48.364;16.022;2023-12-04T15:26:23;0.70;99.90
7814;DHT22;3952;48.364;16.022;2023-12-04T15:28:50;0.60;99.90
7814;DHT22;3952;48.364;16.022;2023-12-04T15:31:16;0.60;99.90
7814;DHT22;3952;48.364;16.022;2023-12-04T15:33:44;0.60;99.90
7814;DHT22;3952;48.364;16.022;2023-12-04T15:36:10;2.70;99.90
7814;DHT22;3952;48.364;16.022;2023-12-04T15:38:39;0.60;99.90
7814;DHT22;3952;48.364;16.022;2023-12-04T15:41:06;0.60;99.90
7814;DHT22;3952;48.364;16.022;2023-12-04T15:43:34;0.60;99.90
7814;DHT22;3952;48.364;16.022;2023-12-04T15:46:01;0.60;99.90
7814;DHT22;3952;48.364;16.022;2023-12-04T15:48:28;0.70;99.90
7814;DHT22;3952;48.364;16.022;2023-12-04T15:50:56;0.70;99.90
7814;DHT22;3952;48.364;16.022;2023-12-04T15:53:22;0.60;99.90
7814;DHT22;3952;48.364;16.022;2023-12-04T15:55:51;0.60;99.90